createdAt,value
2023-03-17T00:00:18.329Z,5.65
2023-03-17T00:03:27.682Z,5.64
2023-03-17T00:06:35.438Z,5.47
2023-03-17T00:09:41.090Z,5.36
2023-03-17T00:12:47.362Z,5.51
2023-03-17T00:15:59.693Z,5.53
2023-03-17T00:19:05.213Z,5.63
2023-03-17T00:22:18.241Z,5.64
2023-03-17T00:25:27.603Z,5.41
2023-03-17T00:28:32.811Z,5.40
2023-03-17T00:31:39.932Z,5.25
2023-03-17T00:34:45.625Z,5.07
2023-03-17T00:37:54.052Z,5.05
2023-03-17T00:40:59.678Z,4.83
2023-03-17T00:44:05.628Z,4.75
2023-03-17T00:47:12.234Z,5.03
2023-03-17T00:50:24.688Z,5.04
2023-03-17T00:53:30.138Z,4.76
2023-03-17T00:56:39.138Z,4.74
2023-03-17T00:59:44.817Z,4.94
2023-03-17T01:02:51.530Z,4.98
2023-03-17T01:05:58.557Z,5.00
2023-03-17T01:09:05.427Z,4.84
2023-03-17T01:12:14.491Z,4.79
2023-03-17T01:15:22.183Z,4.84
2023-03-17T01:18:27.997Z,5.06
2023-03-17T01:21:33.183Z,4.93
2023-03-17T01:24:40.413Z,4.90
2023-03-17T01:27:47.573Z,4.78
2023-03-17T01:30:52.906Z,4.74
2023-03-17T01:33:58.967Z,4.79
2023-03-17T01:37:04.549Z,4.83
2023-03-17T01:40:15.696Z,5.03
2023-03-17T01:43:28.539Z,4.99
2023-03-17T01:46:36.946Z,4.90
2023-03-17T01:49:43.376Z,4.90
2023-03-17T01:52:49.452Z,4.72
2023-03-17T01:55:57.682Z,4.58
2023-03-17T01:59:07.704Z,4.85
2023-03-17T02:02:19.148Z,4.88
2023-03-17T02:05:28.190Z,4.95
2023-03-17T02:08:33.621Z,4.88
2023-03-17T02:11:40.936Z,4.99
2023-03-17T02:14:46.989Z,4.87
2023-03-17T02:17:52.843Z,4.84
2023-03-17T02:20:58.868Z,4.75
2023-03-17T02:24:13.850Z,4.80
2023-03-17T02:27:24.440Z,4.66
2023-03-17T02:30:33.410Z,4.68
2023-03-17T02:33:39.363Z,4.80
2023-03-17T02:36:45.247Z,4.63
2023-03-17T02:39:50.801Z,4.56
2023-03-17T02:42:56.794Z,4.79
2023-03-17T02:46:06.679Z,4.82
2023-03-17T02:49:13.126Z,4.64
2023-03-17T02:52:18.511Z,4.51
2023-03-17T02:55:24.312Z,4.25
2023-03-17T02:58:29.518Z,4.29
2023-03-17T03:01:35.790Z,4.56
2023-03-17T03:04:42.352Z,4.30
2023-03-17T03:07:47.891Z,4.36
2023-03-17T03:10:55.164Z,4.38
2023-03-17T03:14:01.470Z,4.53
2023-03-17T03:17:06.788Z,4.65
2023-03-17T03:20:13.605Z,4.54
2023-03-17T03:23:19.216Z,4.61
2023-03-17T03:26:24.848Z,4.54
2023-03-17T03:29:30.300Z,4.51
2023-03-17T03:32:35.647Z,4.55
2023-03-17T03:35:43.201Z,4.65
2023-03-17T03:38:48.496Z,4.50
2023-03-17T03:41:58.696Z,4.39
2023-03-17T03:45:04.836Z,4.36
2023-03-17T03:48:10.826Z,4.43
2023-03-17T03:51:16.477Z,4.50
2023-03-17T03:54:22.280Z,4.46
2023-03-17T03:57:28.128Z,4.41
2023-03-17T04:00:33.947Z,4.30
2023-03-17T04:03:41.149Z,4.44
2023-03-17T04:06:46.687Z,4.44
2023-03-17T04:09:52.572Z,4.38
2023-03-17T04:12:58.012Z,4.36
2023-03-17T04:16:03.664Z,4.45
2023-03-17T04:19:09.320Z,4.55
2023-03-17T04:22:15.187Z,4.44
2023-03-17T04:25:22.147Z,4.50
2023-03-17T04:28:27.770Z,4.38
2023-03-17T04:31:33.414Z,4.44
2023-03-17T04:34:39.142Z,4.26
2023-03-17T04:37:45.769Z,4.27
2023-03-17T04:40:52.110Z,4.23
2023-03-17T04:43:57.249Z,4.21
2023-03-17T04:47:03.409Z,4.22
2023-03-17T04:50:10.625Z,4.18
2023-03-17T04:53:16.204Z,4.21
2023-03-17T04:56:21.943Z,4.27
2023-03-17T04:59:27.942Z,4.19
2023-03-17T05:02:33.663Z,4.13
2023-03-17T05:05:39.307Z,3.98
2023-03-17T05:08:45.238Z,4.08
2023-03-17T05:11:52.265Z,4.06
2023-03-17T05:14:57.950Z,4.07
2023-03-17T05:18:05.031Z,4.23
2023-03-17T05:21:10.831Z,4.14
2023-03-17T05:24:16.617Z,4.17
2023-03-17T05:27:22.933Z,4.26
2023-03-17T05:30:28.224Z,4.30
2023-03-17T05:33:33.894Z,4.18
2023-03-17T05:36:39.295Z,4.26
2023-03-17T05:39:44.436Z,4.30
2023-03-17T05:42:51.202Z,4.18
2023-03-17T05:45:56.840Z,4.17
2023-03-17T05:49:02.454Z,4.25
2023-03-17T05:52:08.429Z,4.17
2023-03-17T05:55:14.905Z,4.41
2023-03-17T05:58:21.265Z,4.56
2023-03-17T06:01:28.261Z,4.77
2023-03-17T06:04:33.815Z,4.79
2023-03-17T06:07:51.713Z,4.76
2023-03-17T06:11:01.034Z,4.90
2023-03-17T06:14:07.854Z,5.02
2023-03-17T06:17:13.617Z,5.06
2023-03-17T06:20:19.984Z,5.06
2023-03-17T06:23:26.206Z,5.07
2023-03-17T06:26:31.820Z,5.14
2023-03-17T06:29:38.268Z,5.12
2023-03-17T06:32:44.399Z,5.21
2023-03-17T06:35:50.001Z,5.27
2023-03-17T06:38:55.546Z,5.37
2023-03-17T06:42:01.918Z,5.47
2023-03-17T06:45:09.652Z,5.61
2023-03-17T06:48:15.206Z,5.70
2023-03-17T06:51:20.912Z,5.70
2023-03-17T06:54:26.841Z,5.71
2023-03-17T06:57:32.642Z,5.59
2023-03-17T07:00:40.657Z,5.82
2023-03-17T07:03:45.993Z,5.76
2023-03-17T07:06:52.112Z,5.78
2023-03-17T07:09:58.543Z,5.83
2023-03-17T07:13:05.436Z,6.08
2023-03-17T07:16:14.323Z,6.24
2023-03-17T07:19:19.897Z,6.46
2023-03-17T07:22:25.691Z,6.43
2023-03-17T07:25:31.763Z,6.67
2023-03-17T07:28:38.441Z,6.91
2023-03-17T07:31:45.326Z,6.90
2023-03-17T07:34:51.051Z,6.88
2023-03-17T07:37:56.396Z,7.16
2023-03-17T07:41:02.248Z,7.21
2023-03-17T07:44:09.999Z,7.28
2023-03-17T07:47:15.403Z,7.40
2023-03-17T07:50:21.141Z,7.55
2023-03-17T07:53:26.711Z,7.60
2023-03-17T07:56:33.243Z,7.71
2023-03-17T07:59:40.335Z,7.85
2023-03-17T08:02:53.674Z,7.89
2023-03-17T08:06:06.645Z,8.00
2023-03-17T08:09:12.996Z,8.17
2023-03-17T08:12:18.882Z,8.29
2023-03-17T08:15:24.337Z,8.49
2023-03-17T08:18:29.871Z,8.48
2023-03-17T08:21:35.402Z,8.58
2023-03-17T08:24:43.429Z,8.67
2023-03-17T08:27:49.242Z,8.66
2023-03-17T08:30:55.034Z,8.83
2023-03-17T08:34:01.262Z,8.89
2023-03-17T08:37:10.072Z,8.96
2023-03-17T08:40:20.163Z,9.04
2023-03-17T08:43:25.848Z,9.08
2023-03-17T08:46:33.262Z,9.16
2023-03-17T08:49:38.815Z,9.42
2023-03-17T08:52:45.964Z,9.45
2023-03-17T08:55:51.370Z,9.61
2023-03-17T08:58:57.328Z,9.64
2023-03-17T09:02:03.220Z,9.75
2023-03-17T09:05:12.930Z,9.72
2023-03-17T09:08:18.533Z,9.75
2023-03-17T09:11:27.734Z,9.96
2023-03-17T09:14:42.957Z,9.86
2023-03-17T09:17:49.610Z,9.95
2023-03-17T09:20:55.378Z,10.02
2023-03-17T09:24:02.691Z,10.31
2023-03-17T09:27:08.546Z,10.30
2023-03-17T09:30:14.727Z,10.47
2023-03-17T09:33:20.306Z,10.53
2023-03-17T09:36:26.237Z,10.52
2023-03-17T09:39:32.165Z,10.60
2023-03-17T09:42:58.383Z,10.64
2023-03-17T09:46:22.077Z,10.85
2023-03-17T09:49:42.458Z,10.77
2023-03-17T09:52:50.360Z,10.78
2023-03-17T09:55:59.188Z,10.83
2023-03-17T09:59:33.667Z,11.10
2023-03-17T10:02:39.178Z,11.17
2023-03-17T10:05:45.273Z,11.03
2023-03-17T10:09:17.143Z,11.16
2023-03-17T10:12:48.760Z,11.24
2023-03-17T10:16:18.134Z,11.04
2023-03-17T10:19:33.147Z,11.34
2023-03-17T10:22:51.196Z,11.40
2023-03-17T10:26:01.066Z,11.45
2023-03-17T10:29:24.168Z,11.32
2023-03-17T10:32:32.469Z,11.28
2023-03-17T10:35:39.884Z,11.39
2023-03-17T10:38:54.602Z,11.48
2023-03-17T10:42:35.966Z,11.71
2023-03-17T10:45:54.690Z,11.52
2023-03-17T10:49:17.148Z,11.46
2023-03-17T10:52:30.534Z,11.45
2023-03-17T10:55:38.680Z,11.59
2023-03-17T10:58:47.037Z,11.66
2023-03-17T11:02:14.723Z,11.84
2023-03-17T11:05:23.962Z,11.78
2023-03-17T11:08:35.892Z,11.86
2023-03-17T11:11:48.230Z,12.12
2023-03-17T11:15:02.227Z,12.05
2023-03-17T11:18:31.356Z,11.81
2023-03-17T11:22:01.599Z,12.00
2023-03-17T11:25:19.753Z,12.21
2023-03-17T11:28:36.150Z,12.18
2023-03-17T11:31:50.630Z,12.23
2023-03-17T11:35:09.452Z,12.44
2023-03-17T11:38:28.922Z,12.06
2023-03-17T11:41:45.181Z,12.34
2023-03-17T11:45:05.236Z,12.43
2023-03-17T11:48:56.339Z,12.22
2023-03-17T11:52:33.006Z,12.63
2023-03-17T11:55:49.127Z,12.41
2023-03-17T11:59:04.601Z,12.48
2023-03-17T12:02:32.867Z,12.36
2023-03-17T12:05:39.833Z,12.31
2023-03-17T12:08:46.088Z,12.25
2023-03-17T12:11:52.201Z,12.52
2023-03-17T12:14:59.863Z,12.85
2023-03-17T12:18:27.812Z,12.75
2023-03-17T12:21:52.983Z,12.81
2023-03-17T12:25:19.513Z,12.85
2023-03-17T12:28:28.908Z,13.03
2023-03-17T12:31:45.282Z,12.92
2023-03-17T12:34:57.483Z,13.10
2023-03-17T12:38:10.892Z,12.98
2023-03-17T12:41:59.040Z,13.17
2023-03-17T12:45:26.832Z,13.39
2023-03-17T12:49:09.157Z,13.43
2023-03-17T12:52:28.611Z,13.44
2023-03-17T12:55:53.409Z,13.47
2023-03-17T12:59:09.017Z,13.67
2023-03-17T13:02:36.552Z,13.30
2023-03-17T13:05:47.216Z,13.56
2023-03-17T13:09:11.934Z,13.61
2023-03-17T13:12:44.901Z,13.75
2023-03-17T13:16:11.248Z,13.72
2023-03-17T13:19:31.304Z,13.53
2023-03-17T13:22:41.461Z,13.98
2023-03-17T13:25:54.995Z,13.85
2023-03-17T13:29:23.016Z,13.76
2023-03-17T13:32:28.275Z,14.05
2023-03-17T13:36:15.798Z,14.21
2023-03-17T13:39:46.358Z,14.18
2023-03-17T13:43:10.379Z,14.18
2023-03-17T13:46:27.735Z,14.34
2023-03-17T13:49:37.034Z,14.41
2023-03-17T13:53:08.912Z,14.12
2023-03-17T13:56:38.736Z,14.02
2023-03-17T13:59:59.162Z,13.77
2023-03-17T14:03:16.602Z,14.08
2023-03-17T14:06:28.218Z,13.68
2023-03-17T14:09:36.330Z,13.78
2023-03-17T14:12:47.253Z,14.05
2023-03-17T14:16:11.392Z,14.32
2023-03-17T14:19:28.483Z,14.17
2023-03-17T14:22:42.018Z,13.97
2023-03-17T14:25:50.952Z,14.24
2023-03-17T14:29:01.327Z,14.28
2023-03-17T14:32:16.111Z,14.39
2023-03-17T14:35:21.852Z,14.39
2023-03-17T14:38:36.123Z,14.05
2023-03-17T14:41:41.956Z,14.15
2023-03-17T14:44:47.605Z,14.31
2023-03-17T14:47:53.191Z,14.28
2023-03-17T14:51:07.061Z,14.04
2023-03-17T14:54:20.836Z,13.95
2023-03-17T14:57:31.241Z,13.99
2023-03-17T15:00:43.608Z,13.72
2023-03-17T15:03:56.840Z,13.85
2023-03-17T15:07:05.076Z,13.90
2023-03-17T15:10:18.693Z,13.87
2023-03-17T15:13:27.329Z,13.84
2023-03-17T15:16:36.428Z,13.86
2023-03-17T15:19:46.411Z,13.87
2023-03-17T15:23:03.506Z,13.74
2023-03-17T15:26:30.717Z,13.88
2023-03-17T15:29:36.651Z,13.96
2023-03-17T15:32:42.356Z,13.91
2023-03-17T15:35:48.737Z,13.85
2023-03-17T15:38:54.272Z,13.86
2023-03-17T15:42:00.562Z,13.86
2023-03-17T15:45:07.013Z,13.69
2023-03-17T15:48:24.040Z,13.53
2023-03-17T15:51:29.308Z,13.57
2023-03-17T15:54:34.706Z,13.35
2023-03-17T15:57:40.019Z,13.27
2023-03-17T16:00:52.440Z,13.20
2023-03-17T16:03:57.846Z,13.08
2023-03-17T16:07:03.351Z,13.12
2023-03-17T16:10:29.699Z,13.09
2023-03-17T16:13:35.769Z,12.98
2023-03-17T16:16:46.026Z,12.92
2023-03-17T16:19:52.983Z,12.89
2023-03-17T16:23:06.577Z,12.88
2023-03-17T16:26:16.225Z,12.71
2023-03-17T16:29:22.169Z,12.71
2023-03-17T16:32:28.190Z,12.53
2023-03-17T16:35:33.858Z,12.51
2023-03-17T16:38:39.033Z,12.53
2023-03-17T16:41:47.161Z,12.52
2023-03-17T16:44:52.734Z,12.43
2023-03-17T16:47:59.060Z,12.37
2023-03-17T16:51:05.732Z,12.44
2023-03-17T16:54:11.863Z,12.33
2023-03-17T16:57:17.395Z,12.25
2023-03-17T17:00:26.292Z,12.17
2023-03-17T17:03:32.283Z,12.05
2023-03-17T17:06:37.265Z,11.96
2023-03-17T17:09:43.072Z,11.91
2023-03-17T17:12:49.356Z,11.82
2023-03-17T17:15:56.187Z,11.69
2023-03-17T17:19:04.149Z,11.67
2023-03-17T17:22:11.681Z,11.61
2023-03-17T17:25:18.082Z,11.55
2023-03-17T17:28:24.584Z,11.51
2023-03-17T17:31:30.170Z,11.40
2023-03-17T17:34:35.775Z,11.35
2023-03-17T17:37:41.981Z,11.31
2023-03-17T17:40:47.819Z,11.29
2023-03-17T17:43:54.256Z,11.25
2023-03-17T17:46:59.703Z,11.22
2023-03-17T17:50:07.161Z,11.09
2023-03-17T17:53:13.617Z,11.07
2023-03-17T17:56:19.094Z,11.05
2023-03-17T17:59:24.542Z,10.96
2023-03-17T18:02:29.860Z,10.90
2023-03-17T18:05:36.345Z,10.85
2023-03-17T18:08:43.821Z,10.85
2023-03-17T18:11:49.373Z,10.69
2023-03-17T18:14:54.583Z,10.59
2023-03-17T18:18:00.249Z,10.44
2023-03-17T18:21:06.520Z,10.40
2023-03-17T18:24:12.263Z,10.31
2023-03-17T18:27:17.753Z,10.36
2023-03-17T18:30:31.912Z,10.27
2023-03-17T18:33:39.449Z,10.22
2023-03-17T18:36:47.013Z,10.21
2023-03-17T18:40:09.988Z,10.19
2023-03-17T18:43:18.011Z,10.06
2023-03-17T18:46:23.600Z,10.09
2023-03-17T18:49:29.239Z,10.08
2023-03-17T18:52:37.381Z,10.07
2023-03-17T18:55:42.692Z,9.89
2023-03-17T18:58:48.635Z,9.83
2023-03-17T19:01:54.478Z,9.86
2023-03-17T19:04:59.779Z,9.67
2023-03-17T19:08:04.837Z,9.71
2023-03-17T19:11:13.745Z,9.76
2023-03-17T19:14:19.598Z,9.76
2023-03-17T19:17:25.050Z,9.84
2023-03-17T19:20:31.870Z,9.80
2023-03-17T19:23:38.466Z,9.88
2023-03-17T19:26:43.960Z,9.72
2023-03-17T19:29:49.294Z,9.59
2023-03-17T19:32:54.930Z,9.53
2023-03-17T19:36:02.870Z,9.47
2023-03-17T19:39:11.139Z,9.50
2023-03-17T19:42:17.797Z,9.49
2023-03-17T19:45:24.236Z,9.48
2023-03-17T19:48:29.525Z,9.42
2023-03-17T19:51:35.445Z,9.33
2023-03-17T19:54:44.971Z,9.31
2023-03-17T19:57:51.230Z,9.22
2023-03-17T20:00:56.712Z,9.15
2023-03-17T20:04:02.400Z,9.14
2023-03-17T20:07:08.112Z,9.14
2023-03-17T20:10:13.523Z,9.04
2023-03-17T20:13:18.840Z,8.94
2023-03-17T20:16:24.124Z,8.94
2023-03-17T20:19:29.528Z,8.89
2023-03-17T20:22:35.388Z,8.79
2023-03-17T20:25:42.355Z,8.78
2023-03-17T20:28:48.166Z,8.63
2023-03-17T20:31:53.545Z,8.58
2023-03-17T20:34:59.173Z,8.60
2023-03-17T20:38:04.574Z,8.52
2023-03-17T20:41:15.258Z,8.51
2023-03-17T20:44:21.771Z,8.50
2023-03-17T20:47:27.349Z,8.55
2023-03-17T20:50:33.583Z,8.41
2023-03-17T20:53:39.183Z,8.29
2023-03-17T20:56:46.052Z,8.36
2023-03-17T20:59:52.219Z,8.25
2023-03-17T21:02:58.215Z,8.25
2023-03-17T21:06:03.875Z,8.24
2023-03-17T21:09:10.223Z,8.23
2023-03-17T21:12:19.183Z,8.20
2023-03-17T21:15:24.953Z,8.09
2023-03-17T21:18:30.712Z,8.06
2023-03-17T21:21:36.106Z,8.04
2023-03-17T21:24:41.531Z,8.01
2023-03-17T21:27:47.071Z,7.97
2023-03-17T21:30:52.448Z,7.93
2023-03-17T21:33:58.189Z,7.79
2023-03-17T21:37:04.414Z,7.73
2023-03-17T21:40:13.108Z,7.64
2023-03-17T21:43:18.975Z,7.55
2023-03-17T21:46:25.871Z,7.58
2023-03-17T21:49:31.535Z,7.56
2023-03-17T21:52:37.437Z,7.57
2023-03-17T21:55:44.326Z,7.60
2023-03-17T21:58:50.156Z,7.44
2023-03-17T22:01:55.607Z,7.53
2023-03-17T22:05:01.249Z,7.31
2023-03-17T22:08:07.193Z,7.33
2023-03-17T22:11:16.365Z,7.33
2023-03-17T22:14:22.331Z,7.21
2023-03-17T22:17:27.611Z,7.12
2023-03-17T22:20:33.319Z,6.89
2023-03-17T22:23:42.722Z,7.02
2023-03-17T22:26:49.184Z,7.04
2023-03-17T22:29:54.870Z,7.03
2023-03-17T22:33:01.047Z,6.99
2023-03-17T22:36:07.104Z,7.08
2023-03-17T22:39:12.641Z,7.02
2023-03-17T22:42:18.544Z,6.89
2023-03-17T22:45:24.225Z,7.00
2023-03-17T22:48:29.958Z,6.89
2023-03-17T22:51:36.870Z,6.74
2023-03-17T22:54:42.323Z,6.57
2023-03-17T22:57:48.116Z,6.42
2023-03-17T23:00:56.517Z,6.36
2023-03-17T23:04:02.584Z,6.34
2023-03-17T23:07:08.056Z,6.47
2023-03-17T23:10:15.997Z,6.65
2023-03-17T23:13:22.569Z,6.59
2023-03-17T23:16:28.179Z,6.54
2023-03-17T23:19:33.652Z,6.60
2023-03-17T23:22:39.180Z,6.54
2023-03-17T23:25:44.984Z,6.37
2023-03-17T23:28:50.279Z,6.52
2023-03-17T23:31:56.319Z,6.37
2023-03-17T23:35:01.589Z,6.37
2023-03-17T23:38:06.939Z,6.28
2023-03-17T23:41:13.408Z,6.17
2023-03-17T23:44:18.638Z,6.29
2023-03-17T23:47:24.073Z,6.29
2023-03-17T23:50:29.877Z,6.36
2023-03-17T23:53:35.993Z,6.30
2023-03-17T23:56:41.638Z,6.29
2023-03-17T23:59:47.649Z,6.07
